Terminal Aerodrome Forecast
Issued by NWS Grand Forks, ND

Home | Current Version | Previous Version | Graphics & Text | Print | Product List | Glossary On
Versions: 1 2 3 4 5 6 7 8 9 10 11 12 13 14 15
000
FTUS43 KFGF 280520
TAFFAR
TAF
KFAR 280520Z 2806/2906 14016KT P6SM SCT250
     FM280800 15015KT P6SM BKN080
      TEMPO 2808/2810 VRB25G35KT 2SM TSRA BKN040CB
     FM281500 20015KT P6SM BKN080
     FM282100 24020G30KT P6SM SCT050=

USA.gov is the U.S. government's official web portal to all federal, state and local government web resources and services.